Bloomingdale, IL

7:26 AM CST on March 01, 2015 (GMT -0600)
Boughton | Change Station
CLOSE
Current Station
Personal Weather Station
Location: Roselle, IL
Elevation: 801 ft
Nearby Weather Stations

Elev 801 ft 41.99 °N, 88.09 °W | Updated 35 seconds ago

Overcast
Overcast
17.4 °F
Feels Like 17 °F
N
0.0
Wind Variable Wind from NNW
Gusts 0.0 mph

Today
High -- | Low -- °F
--% Chance of Precip.
Yesterday
High -- | Low -- °F
Precip. -- in
6:27 AM 5:42 PM
Waxing Gibbous, 85% visible
Pressure 30.36 in
Visibility 2.5 miles
Clouds Overcast 500 ft
Windchill 17 °F
Dew Point 11 °F
Humidity 74%
Rainfall 0.00 in
Snow Depth Not available.
UV 0.0 out of 12
Pollen .50 out of 12
Air Quality Not available.
Flu Activity Not available.
SPECI KDPA 011312Z 00000KT 2 1/2SM BR OVC005 M10/M12 A3036 RMK AO2 T11001117

More Conditions Fewer Conditions

Pressure 30.36 in
Visibility 2.5 miles
Clouds Overcast 500 ft
Windchill 17 °F
Dew Point 11 °F
Humidity 74%
Rainfall 0.00 in
Snow Depth Not available.
UV 0.0 out of 12
Pollen .50 out of 12
Air Quality Not available.
Flu Activity Not available.
SPECI KDPA 011312Z 00000KT 2 1/2SM BR OVC005 M10/M12 A3036 RMK AO2 T11001117

More Conditions Fewer Conditions

10-Day Weather Forecast

Almanac

Astronomy

Mar. 01, 2015 Rise Set
Actual Time
Civil Twilight
Nautical Twilight
Astronomical Twilight
Moon
Length of Visible Light
Length of Day
Tomorrow will be .
, % of the Moon is Illuminated

Today's Extremes

State Highs State Lows

Community

WunderPhotos

Upload Photos

1,801,380 photos uploaded!

WunderBlogs® & News

Nearby

Air Quality

  Air Quality AQ Index Pollutant
Not available.

Snow Depth

Station Depth Elevation

Earthquake Activity

City Distance Mag. Time & Date
Minimum magnitude displayed is 2.5.

Coastal Water Temperatures

Place Temperature

Nearby Weather Stations